< < Back
Terminal Aerodrome Forecast


Current Version              Previous Versions:   1  2  3  4  5  6  7  8  9  

Terminal Aerodrome Forecast

900
FTUS42 KGSP 291741
TAFAVL
TAF
KAVL 291741Z 2918/3018 34004KT P6SM VCTS BKN035CB
      TEMPO 2918/2920 34010KT 4SM TSRA BKN025CB
     FM292100 34004KT P6SM SCT035
     FM300700 00000KT 4SM BR SCT023
     FM300800 00000KT 2SM BR SCT005
     FM301500 34005KT P6SM BKN045=

Latest METAR

876
SAUS70 KWBC 300200 RRG
MTRAVL
METAR KAVL 300154Z 00000KT 9SM CLR 24/22 A3009 RMK AO2 SLP158
T02390222


USA.gov is the U.S. government's official web portal to all federal, state and local government web resources and services.